createdAt,value
2023-03-17T00:39:32.889Z,22.33
2023-03-17T00:41:32.941Z,22.31
2023-03-17T00:42:32.934Z,22.27
2023-03-17T00:43:32.932Z,22.30
2023-03-17T00:44:32.934Z,22.27
2023-03-17T00:45:32.969Z,22.34
2023-03-17T00:46:32.980Z,22.34
2023-03-17T00:47:32.981Z,22.34
2023-03-17T00:48:32.979Z,22.31
2023-03-17T00:49:32.980Z,22.30
2023-03-17T00:50:32.993Z,22.30
2023-03-17T00:51:32.977Z,22.36
2023-03-17T00:52:33.029Z,22.28
2023-03-17T00:53:33.020Z,22.34
2023-03-17T00:54:33.012Z,22.36
2023-03-17T00:55:33.013Z,22.34
2023-03-17T00:56:33.025Z,22.33
2023-03-17T00:57:33.046Z,22.30
2023-03-17T00:59:33.056Z,22.34
2023-03-17T01:00:33.276Z,22.34
2023-03-17T01:01:33.061Z,22.34
2023-03-17T01:02:33.078Z,22.33
2023-03-17T01:03:33.129Z,22.31
2023-03-17T01:04:33.074Z,22.30
2023-03-17T01:05:33.081Z,22.36
2023-03-17T01:06:33.089Z,22.31
2023-03-17T01:07:33.090Z,22.34
2023-03-17T01:08:33.095Z,22.31
2023-03-17T01:09:33.093Z,22.34
2023-03-17T01:10:33.097Z,22.34
2023-03-17T01:11:33.093Z,22.33
2023-03-17T01:12:33.121Z,22.31
2023-03-17T01:13:33.113Z,22.31
2023-03-17T01:14:33.115Z,22.33
2023-03-17T01:15:33.118Z,22.28
2023-03-17T01:16:33.143Z,22.37
2023-03-17T01:17:33.158Z,22.33
2023-03-17T01:18:33.207Z,22.34
2023-03-17T01:19:33.145Z,22.31
2023-03-17T01:20:33.158Z,22.30
2023-03-17T01:21:33.143Z,22.34
2023-03-17T01:22:33.162Z,22.36
2023-03-17T01:23:33.165Z,22.34
2023-03-17T01:24:33.169Z,22.33
2023-03-17T01:25:33.164Z,22.31
2023-03-17T01:26:33.175Z,22.34
2023-03-17T01:27:33.155Z,22.31
2023-03-17T01:28:33.177Z,22.33
2023-03-17T01:29:33.179Z,22.29
2023-03-17T01:30:33.190Z,22.33
2023-03-17T01:31:33.238Z,22.31
2023-03-17T01:32:33.187Z,22.34
2023-03-17T01:33:33.194Z,22.31
2023-03-17T01:34:33.195Z,22.31
2023-03-17T01:35:33.227Z,22.31
2023-03-17T01:36:33.213Z,22.36
2023-03-17T01:37:33.217Z,22.33
2023-03-17T01:38:33.329Z,22.33
2023-03-17T01:39:33.224Z,22.33
2023-03-17T01:40:33.245Z,22.31
2023-03-17T01:41:33.210Z,22.30
2023-03-17T01:42:33.208Z,22.30
2023-03-17T01:43:33.205Z,22.34
2023-03-17T01:44:33.209Z,22.29
2023-03-17T01:45:33.297Z,22.31
2023-03-17T01:46:33.208Z,22.29
2023-03-17T01:47:33.207Z,22.33
2023-03-17T01:48:33.218Z,22.31
2023-03-17T01:49:33.227Z,22.28
2023-03-17T01:50:33.225Z,22.35
2023-03-17T01:51:33.234Z,22.31
2023-03-17T01:52:33.217Z,22.31
2023-03-17T01:53:33.214Z,22.33
2023-03-17T01:54:33.206Z,22.35
2023-03-17T01:55:33.213Z,22.34
2023-03-17T01:56:33.213Z,22.31
2023-03-17T01:57:33.219Z,22.33
2023-03-17T01:58:33.219Z,22.33
2023-03-17T01:59:33.250Z,22.31
2023-03-17T02:00:33.206Z,22.33
2023-03-17T02:01:33.208Z,22.35
2023-03-17T02:02:33.208Z,22.31
2023-03-17T02:03:33.620Z,22.35
2023-03-17T02:04:33.235Z,22.33
2023-03-17T02:05:33.234Z,22.31
2023-03-17T02:06:33.215Z,22.35
2023-03-17T02:07:33.239Z,22.28
2023-03-17T02:08:33.246Z,22.29
2023-03-17T02:09:33.231Z,22.31
2023-03-17T02:10:33.292Z,22.31
2023-03-17T02:11:33.242Z,22.31
2023-03-17T02:12:33.254Z,22.34
2023-03-17T02:13:33.261Z,22.33
2023-03-17T02:14:33.255Z,22.33
2023-03-17T02:15:33.295Z,22.31
2023-03-17T02:16:33.288Z,22.33
2023-03-17T02:17:33.282Z,22.31
2023-03-17T02:18:33.286Z,22.29
2023-03-17T02:19:33.294Z,22.29
2023-03-17T02:20:33.292Z,22.31
2023-03-17T02:21:33.297Z,22.37
2023-03-17T02:22:33.321Z,22.31
2023-03-17T02:23:33.328Z,22.31
2023-03-17T02:24:33.305Z,22.34
2023-03-17T02:25:33.307Z,22.29
2023-03-17T02:26:33.325Z,22.34
2023-03-17T02:27:33.336Z,22.31
2023-03-17T02:28:33.370Z,22.33
2023-03-17T02:29:33.351Z,22.34
2023-03-17T02:30:33.520Z,22.35
2023-03-17T02:31:33.352Z,22.35
2023-03-17T02:32:33.383Z,22.31
2023-03-17T02:33:33.399Z,22.28
2023-03-17T02:34:33.380Z,22.33
2023-03-17T02:35:33.422Z,22.31
2023-03-17T02:36:33.438Z,22.35
2023-03-17T02:37:33.418Z,22.35
2023-03-17T02:38:33.406Z,22.34
2023-03-17T02:39:33.426Z,22.31
2023-03-17T02:40:33.427Z,22.32
2023-03-17T02:41:33.439Z,22.33
2023-03-17T02:42:33.453Z,22.29
2023-03-17T02:43:33.462Z,22.32
2023-03-17T02:44:33.455Z,22.35
2023-03-17T02:45:33.472Z,22.31
2023-03-17T02:46:33.535Z,22.34
2023-03-17T02:47:33.487Z,22.31
2023-03-17T02:48:33.476Z,22.31
2023-03-17T02:49:33.492Z,22.29
2023-03-17T02:50:33.513Z,22.31
2023-03-17T02:51:33.500Z,22.35
2023-03-17T02:52:33.505Z,22.33
2023-03-17T02:53:33.517Z,22.31
2023-03-17T02:54:33.532Z,22.29
2023-03-17T02:55:33.534Z,22.31
2023-03-17T02:56:33.529Z,22.35
2023-03-17T02:57:33.532Z,22.28
2023-03-17T02:58:33.537Z,22.28
2023-03-17T02:59:33.544Z,22.27
2023-03-17T03:00:33.541Z,22.31
2023-03-17T03:01:33.614Z,22.32
2023-03-17T03:02:33.659Z,22.29
2023-03-17T03:03:33.565Z,22.32
2023-03-17T03:04:33.579Z,22.28
2023-03-17T03:05:33.589Z,22.29
2023-03-17T03:06:33.596Z,22.29
2023-03-17T03:07:33.588Z,22.32
2023-03-17T03:08:33.608Z,22.32
2023-03-17T03:09:33.623Z,22.29
2023-03-17T03:10:33.595Z,22.34
2023-03-17T03:11:33.609Z,22.29
2023-03-17T03:12:33.634Z,22.33
2023-03-17T03:13:33.626Z,22.31
2023-03-17T03:14:33.636Z,22.28
2023-03-17T03:15:33.711Z,22.29
2023-03-17T03:16:33.643Z,22.32
2023-03-17T03:17:33.659Z,22.29
2023-03-17T03:18:33.679Z,22.31
2023-03-17T03:19:33.678Z,22.37
2023-03-17T03:20:33.679Z,22.28
2023-03-17T03:21:33.679Z,22.28
2023-03-17T03:22:33.716Z,22.30
2023-03-17T03:23:33.699Z,22.29
2023-03-17T03:24:33.697Z,22.28
2023-03-17T03:25:33.708Z,22.31
2023-03-17T03:26:33.746Z,22.31
2023-03-17T03:27:33.729Z,22.32
2023-03-17T03:28:33.720Z,22.29
2023-03-17T03:29:33.738Z,22.30
2023-03-17T03:30:33.730Z,22.32
2023-03-17T03:31:33.754Z,22.31
2023-03-17T03:32:33.794Z,22.32
2023-03-17T03:33:33.757Z,22.31
2023-03-17T03:34:33.773Z,22.28
2023-03-17T03:35:33.782Z,22.31
2023-03-17T03:36:33.752Z,22.26
2023-03-17T03:37:33.755Z,22.28
2023-03-17T03:38:33.758Z,22.31
2023-03-17T03:40:33.760Z,22.29
2023-03-17T03:41:33.783Z,22.29
2023-03-17T03:42:33.772Z,22.35
2023-03-17T07:09:35.067Z,24.25
2023-03-17T07:10:35.087Z,24.36
2023-03-17T07:11:35.061Z,24.40
2023-03-17T07:12:35.126Z,24.41
2023-03-17T07:13:35.085Z,23.61
2023-03-17T07:14:35.101Z,22.16
2023-03-17T07:15:35.231Z,21.34
2023-03-17T07:16:35.798Z,19.58
2023-03-17T07:17:35.206Z,18.46
2023-03-17T07:18:35.230Z,18.42
2023-03-17T07:19:35.348Z,18.34
2023-03-17T07:20:35.417Z,18.78
2023-03-17T07:21:35.392Z,18.53
2023-03-17T07:22:35.469Z,18.33
2023-03-17T07:23:35.525Z,17.69
2023-03-17T07:24:35.603Z,18.67
2023-03-17T07:25:35.665Z,18.89
2023-03-17T07:26:35.788Z,19.12
2023-03-17T07:27:35.741Z,19.85
2023-03-17T07:28:35.829Z,19.96
2023-03-17T07:29:35.887Z,20.18
2023-03-17T07:30:36.100Z,20.40
2023-03-17T07:31:36.619Z,20.61
2023-03-17T07:32:36.070Z,20.77
2023-03-17T07:33:36.294Z,20.87
2023-03-17T07:34:36.045Z,20.89
2023-03-17T07:35:36.139Z,20.98
2023-03-17T07:36:36.127Z,20.93
2023-03-17T07:37:36.310Z,21.08
2023-03-17T07:38:36.295Z,21.15
2023-03-17T07:39:36.448Z,21.19
2023-03-17T07:40:36.291Z,21.41
2023-03-17T07:41:36.387Z,21.47
2023-03-17T07:42:36.353Z,21.31
2023-03-17T07:43:36.411Z,21.28
2023-03-17T07:44:36.399Z,21.02
2023-03-17T07:45:36.368Z,21.60
2023-03-17T07:46:36.467Z,21.41
2023-03-17T07:47:36.415Z,21.90
2023-03-17T07:48:36.349Z,22.45
2023-03-17T07:49:41.671Z,21.82
2023-03-17T07:50:37.408Z,21.66
2023-03-17T07:51:36.413Z,22.03
2023-03-17T07:52:36.543Z,21.45
2023-03-17T07:53:37.309Z,20.96
2023-03-17T07:54:36.481Z,20.45
2023-03-17T07:55:36.800Z,20.84
2023-03-17T07:56:36.494Z,21.00
2023-03-17T07:57:36.635Z,20.84
2023-03-17T07:58:36.567Z,21.16
2023-03-17T07:59:36.566Z,20.85
2023-03-17T08:00:36.756Z,21.95
2023-03-17T08:01:36.669Z,22.39
2023-03-17T08:02:36.865Z,21.14
2023-03-17T08:03:38.108Z,21.26
2023-03-17T08:04:36.860Z,22.16
2023-03-17T08:05:36.871Z,21.34
2023-03-17T08:06:36.913Z,21.40
2023-03-17T08:07:36.883Z,21.44
2023-03-17T08:08:36.916Z,21.59
2023-03-17T08:09:38.806Z,22.20
2023-03-17T08:10:36.962Z,21.62
2023-03-17T08:11:36.964Z,21.19
2023-03-17T08:12:37.035Z,21.18
2023-03-17T08:13:36.977Z,21.52
2023-03-17T08:14:37.034Z,21.33
2023-03-17T08:15:37.009Z,21.09
2023-03-17T08:16:37.085Z,21.11
2023-03-17T08:17:37.106Z,20.84
2023-03-17T08:18:37.168Z,20.82
2023-03-17T08:19:37.268Z,21.26
2023-03-17T08:20:37.358Z,21.11
2023-03-17T08:21:37.423Z,20.97
2023-03-17T08:22:37.456Z,20.97
2023-03-17T08:23:37.592Z,20.86
2023-03-17T08:24:37.613Z,21.26
2023-03-17T08:25:37.713Z,21.02
2023-03-17T08:26:37.842Z,21.44
2023-03-17T08:27:37.845Z,21.24
2023-03-17T08:28:37.907Z,21.19
2023-03-17T08:29:38.033Z,21.55
2023-03-17T08:30:38.404Z,21.04
2023-03-17T08:31:38.126Z,21.27
2023-03-17T08:32:38.151Z,21.06
2023-03-17T08:33:38.130Z,21.98
2023-03-17T08:34:38.137Z,21.82
2023-03-17T08:35:38.150Z,21.81
2023-03-17T08:36:38.308Z,21.69
2023-03-17T08:37:38.303Z,22.06
2023-03-17T08:38:38.265Z,22.21
2023-03-17T08:39:38.341Z,22.24
2023-03-17T08:40:38.411Z,21.98
2023-03-17T08:41:38.548Z,21.92
2023-03-17T08:42:38.571Z,21.77
2023-03-17T08:43:38.622Z,21.74
2023-03-17T08:44:38.620Z,21.43
2023-03-17T08:45:38.628Z,21.55
2023-03-17T08:46:39.306Z,21.07
2023-03-17T08:47:38.731Z,21.66
2023-03-17T08:48:38.673Z,21.37
2023-03-17T08:49:38.700Z,21.49
2023-03-17T08:50:38.741Z,21.15
2023-03-17T08:51:38.696Z,20.79
2023-03-17T08:52:38.705Z,20.67
2023-03-17T08:53:38.736Z,21.14
2023-03-17T08:54:38.735Z,21.05
2023-03-17T08:55:38.746Z,21.24
2023-03-17T08:56:38.775Z,20.08
2023-03-17T08:57:38.779Z,20.63
2023-03-17T08:58:38.778Z,20.55
2023-03-17T08:59:38.929Z,20.75
2023-03-17T09:00:38.806Z,20.90
2023-03-17T09:01:38.971Z,21.41
2023-03-17T09:02:38.879Z,21.35
2023-03-17T09:03:38.863Z,21.32
2023-03-17T09:04:40.088Z,20.66
2023-03-17T09:05:38.846Z,20.26
2023-03-17T09:06:42.306Z,20.35
2023-03-17T09:07:39.996Z,20.78
2023-03-17T09:08:38.969Z,20.11
2023-03-17T09:09:38.870Z,19.84
2023-03-17T09:10:39.048Z,19.97
2023-03-17T09:11:38.876Z,20.08
2023-03-17T09:12:38.941Z,20.53
2023-03-17T09:13:38.910Z,19.27
2023-03-17T09:14:43.890Z,19.12
2023-03-17T09:15:40.215Z,18.74
2023-03-17T09:16:38.987Z,19.35
2023-03-17T09:17:39.023Z,19.42
2023-03-17T09:18:39.082Z,19.86
2023-03-17T09:19:39.067Z,20.50
2023-03-17T09:20:39.067Z,20.53
2023-03-17T09:21:39.234Z,20.80
2023-03-17T09:22:39.100Z,19.78
2023-03-17T09:23:39.134Z,20.55
2023-03-17T09:24:39.163Z,20.86
2023-03-17T09:25:39.169Z,20.67
2023-03-17T09:26:39.202Z,20.94
2023-03-17T09:27:39.172Z,20.81
2023-03-17T09:28:39.212Z,20.93
2023-03-17T09:29:39.210Z,20.68
2023-03-17T09:30:39.237Z,20.09
2023-03-17T09:31:39.342Z,20.57
2023-03-17T09:32:39.301Z,21.54
2023-03-17T09:33:39.264Z,21.86
2023-03-17T09:34:39.290Z,20.31
2023-03-17T09:35:39.295Z,21.11
2023-03-17T09:36:39.292Z,20.82
2023-03-17T09:37:39.288Z,21.12
2023-03-17T09:38:39.815Z,20.52
2023-03-17T09:39:39.290Z,19.64
2023-03-17T09:40:39.297Z,19.80
2023-03-17T09:41:39.333Z,19.29
2023-03-17T09:42:39.335Z,19.47
2023-03-17T09:43:39.343Z,19.82
2023-03-17T09:44:39.399Z,20.13
2023-03-17T09:45:41.660Z,19.58
2023-03-17T09:46:39.428Z,19.61
2023-03-17T09:47:41.582Z,20.74
2023-03-17T09:48:39.395Z,20.92
2023-03-17T09:49:39.445Z,21.10
2023-03-17T09:50:39.411Z,20.85
2023-03-17T09:51:39.411Z,20.76
2023-03-17T09:52:39.420Z,19.40
2023-03-17T09:53:39.463Z,20.27
2023-03-17T09:54:39.450Z,19.79
2023-03-17T09:55:40.227Z,20.49
2023-03-17T09:56:39.476Z,20.37
2023-03-17T09:57:40.428Z,20.55
2023-03-17T09:58:39.514Z,20.66
2023-03-17T09:59:39.518Z,19.80
2023-03-17T10:00:39.531Z,20.66
2023-03-17T10:01:39.604Z,19.74
2023-03-17T10:02:39.532Z,20.30
2023-03-17T10:03:39.536Z,20.78
2023-03-17T10:04:40.347Z,20.70
2023-03-17T10:05:39.607Z,20.78
2023-03-17T10:06:39.543Z,20.63
2023-03-17T10:07:39.603Z,20.56
2023-03-17T10:08:39.560Z,20.53
2023-03-17T10:09:39.561Z,20.64
2023-03-17T10:10:39.553Z,20.48
2023-03-17T10:11:39.567Z,20.61
2023-03-17T10:12:39.654Z,20.39
2023-03-17T10:13:40.322Z,20.40
2023-03-17T10:14:39.548Z,20.37
2023-03-17T10:15:39.595Z,19.61
2023-03-17T10:16:39.606Z,19.32
2023-03-17T10:17:39.610Z,19.18
2023-03-17T10:18:39.623Z,19.73
2023-03-17T10:19:39.616Z,19.74
2023-03-17T10:20:39.620Z,19.71
2023-03-17T10:21:39.608Z,20.53
2023-03-17T10:22:39.649Z,18.94
2023-03-17T10:23:39.626Z,19.91
2023-03-17T10:25:39.667Z,20.50
2023-03-17T10:26:39.629Z,20.80
2023-03-17T10:27:39.690Z,20.93
2023-03-17T10:28:39.635Z,21.05
2023-03-17T10:29:39.625Z,20.97
2023-03-17T10:30:40.330Z,20.95
2023-03-17T10:31:40.337Z,21.02
2023-03-17T10:32:39.668Z,20.95
2023-03-17T10:33:39.616Z,20.99
2023-03-17T10:34:39.627Z,20.95
2023-03-17T10:35:39.755Z,21.07
2023-03-17T10:36:39.687Z,21.40
2023-03-17T10:37:40.556Z,21.44
2023-03-17T10:38:39.602Z,21.43
2023-03-17T10:39:39.587Z,21.35
2023-03-17T10:40:39.578Z,21.41
2023-03-17T10:41:39.609Z,21.65
2023-03-17T10:42:39.593Z,21.95
2023-03-17T10:43:39.566Z,22.07
2023-03-17T10:44:39.617Z,22.79
2023-03-17T10:45:42.167Z,23.10
2023-03-17T10:46:39.628Z,23.26
2023-03-17T10:47:39.561Z,23.32
2023-03-17T10:48:39.548Z,23.27
2023-03-17T10:49:39.564Z,23.74
2023-03-17T10:50:39.566Z,23.93
2023-03-17T10:51:39.592Z,24.09
2023-03-17T10:52:39.582Z,24.31
2023-03-17T10:53:39.568Z,24.60
2023-03-17T10:54:39.534Z,24.39
2023-03-17T10:55:39.497Z,24.49
2023-03-17T10:56:39.535Z,24.23
2023-03-17T10:57:39.501Z,23.86
2023-03-17T10:58:39.509Z,24.38
2023-03-17T10:59:42.102Z,24.49
2023-03-17T11:00:39.527Z,24.94
2023-03-17T11:01:39.484Z,25.27
2023-03-17T11:02:39.492Z,25.29
2023-03-17T11:03:39.520Z,25.54
2023-03-17T11:04:40.343Z,25.73
2023-03-17T11:05:40.117Z,25.63
2023-03-17T11:06:39.453Z,25.59
2023-03-17T11:07:39.498Z,25.91
2023-03-17T11:08:39.463Z,25.91
2023-03-17T11:09:40.456Z,25.97
2023-03-17T11:10:39.409Z,26.17
2023-03-17T11:11:39.394Z,26.07
2023-03-17T11:12:39.432Z,26.19
2023-03-17T11:13:39.501Z,26.20
2023-03-17T11:14:39.489Z,26.23
2023-03-17T11:15:39.379Z,26.41
2023-03-17T11:16:39.395Z,26.28
2023-03-17T11:17:39.372Z,26.09
2023-03-17T11:18:39.334Z,25.95
2023-03-17T11:19:39.298Z,25.84
2023-03-17T11:20:39.309Z,25.82
2023-03-17T11:21:39.340Z,25.74
2023-03-17T11:22:39.251Z,25.70
2023-03-17T11:23:39.275Z,25.66
2023-03-17T11:24:39.359Z,25.73
2023-03-17T11:25:39.261Z,25.08
2023-03-17T11:26:39.276Z,25.55
2023-03-17T11:27:39.255Z,25.65
2023-03-17T11:28:39.243Z,25.47
2023-03-17T11:29:39.226Z,25.33
2023-03-17T11:30:39.228Z,25.22
2023-03-17T11:31:39.380Z,25.05
2023-03-17T11:32:39.242Z,24.91
2023-03-17T11:33:39.202Z,24.78
2023-03-17T11:34:39.227Z,24.83
2023-03-17T11:35:39.216Z,24.66
2023-03-17T11:36:39.155Z,24.67
2023-03-17T11:37:39.169Z,24.06
2023-03-17T11:38:39.340Z,23.49
2023-03-17T11:39:39.164Z,23.98
2023-03-17T11:40:39.131Z,24.16
2023-03-17T11:41:39.097Z,23.97
2023-03-17T11:42:39.106Z,24.61
2023-03-17T11:43:39.131Z,24.95
2023-03-17T11:44:39.109Z,25.51
2023-03-17T11:45:39.121Z,25.80
2023-03-17T11:46:39.068Z,25.85
2023-03-17T11:47:39.111Z,25.99
2023-03-17T11:48:39.072Z,26.06
2023-03-17T11:49:39.077Z,25.92
2023-03-17T11:50:39.049Z,25.99
2023-03-17T11:51:39.012Z,25.97
2023-03-17T11:52:39.041Z,26.06
2023-03-17T11:53:39.423Z,26.21
2023-03-17T11:54:38.989Z,25.93
2023-03-17T11:55:38.979Z,25.86
2023-03-17T11:56:38.911Z,25.86
2023-03-17T11:57:38.926Z,25.86
2023-03-17T11:58:38.906Z,25.85
2023-03-17T11:59:38.916Z,25.95
2023-03-17T12:00:38.881Z,26.02
2023-03-17T12:01:38.873Z,26.03
2023-03-17T12:02:38.819Z,26.16
2023-03-17T12:03:38.930Z,26.26
2023-03-17T12:04:39.418Z,26.25
2023-03-17T12:05:38.825Z,26.09
2023-03-17T12:06:38.805Z,26.09
2023-03-17T12:07:38.800Z,26.05
2023-03-17T12:08:38.770Z,26.07
2023-03-17T12:09:38.800Z,25.94
2023-03-17T12:10:38.723Z,25.96
2023-03-17T12:11:38.733Z,26.01
2023-03-17T12:12:38.751Z,26.07
2023-03-17T12:13:38.724Z,26.12
2023-03-17T12:14:38.725Z,26.14
2023-03-17T12:15:38.761Z,26.19
2023-03-17T12:16:38.736Z,26.19
2023-03-17T12:17:38.639Z,26.00
2023-03-17T12:18:38.680Z,26.08
2023-03-17T12:19:38.608Z,26.21
2023-03-17T12:20:38.643Z,26.21
2023-03-17T12:21:38.617Z,26.12
2023-03-17T12:22:38.588Z,25.96
2023-03-17T12:23:38.582Z,25.78
2023-03-17T12:24:38.552Z,25.69
2023-03-17T12:25:38.580Z,25.76
2023-03-17T12:26:38.551Z,25.75
2023-03-17T12:27:38.552Z,25.59
2023-03-17T12:28:38.541Z,25.51
2023-03-17T12:29:38.458Z,25.19
2023-03-17T12:30:38.461Z,25.12
2023-03-17T12:31:38.432Z,25.23
2023-03-17T12:32:38.452Z,25.46
2023-03-17T12:33:38.427Z,25.39
2023-03-17T12:34:38.396Z,25.28
2023-03-17T12:35:38.375Z,25.10
2023-03-17T12:36:38.360Z,25.02
2023-03-17T12:37:39.305Z,24.95
2023-03-17T12:38:38.309Z,24.93
2023-03-17T12:39:38.336Z,24.85
2023-03-17T12:40:38.262Z,24.77
2023-03-17T12:41:38.240Z,24.67
2023-03-17T12:42:38.224Z,24.67
2023-03-17T12:43:38.197Z,24.63
2023-03-17T12:44:38.171Z,24.59
2023-03-17T12:45:38.190Z,24.56
2023-03-17T12:46:38.240Z,24.52
2023-03-17T12:47:38.105Z,24.39
2023-03-17T12:48:38.071Z,24.45
2023-03-17T12:49:38.072Z,24.41
2023-03-17T12:50:38.034Z,24.39
2023-03-17T12:51:38.654Z,24.38
2023-03-17T12:52:38.009Z,24.36
2023-03-17T12:53:38.016Z,24.40
2023-03-17T12:54:38.086Z,24.39
2023-03-17T12:55:37.949Z,24.34
2023-03-17T12:56:37.982Z,24.34
2023-03-17T12:57:37.905Z,24.35
2023-03-17T12:58:37.915Z,24.31
2023-03-17T12:59:37.881Z,24.35
2023-03-17T13:00:37.883Z,24.33
2023-03-17T13:01:37.883Z,24.37
2023-03-17T13:02:37.813Z,24.31
2023-03-17T13:03:37.880Z,24.33
2023-03-17T13:04:38.431Z,24.34
2023-03-17T13:05:37.753Z,24.30
2023-03-17T13:06:37.718Z,24.33
2023-03-17T13:07:37.741Z,24.26
2023-03-17T13:08:37.694Z,24.23
2023-03-17T13:09:37.700Z,24.24
2023-03-17T13:10:37.682Z,24.29
2023-03-17T13:11:37.664Z,24.24
2023-03-17T13:12:37.675Z,24.26
2023-03-17T13:13:37.640Z,24.26
2023-03-17T13:14:37.609Z,24.24
2023-03-17T13:15:37.585Z,24.23
2023-03-17T13:16:37.620Z,24.20
2023-03-17T13:17:37.616Z,24.28
2023-03-17T13:18:37.567Z,24.20
2023-03-17T13:19:37.536Z,24.22
2023-03-17T13:20:37.504Z,24.19
2023-03-17T13:21:37.479Z,24.17
2023-03-17T13:22:37.439Z,24.12
2023-03-17T13:23:37.464Z,24.16
2023-03-17T13:24:37.444Z,24.13
2023-03-17T13:25:37.415Z,24.17
2023-03-17T13:26:37.412Z,24.13
2023-03-17T13:27:37.383Z,24.13
2023-03-17T13:28:37.352Z,24.08
2023-03-17T13:29:37.355Z,24.01
2023-03-17T13:30:37.316Z,24.01
2023-03-17T13:31:37.401Z,24.04
2023-03-17T13:32:37.351Z,24.04
2023-03-17T13:33:37.252Z,24.05
2023-03-17T13:34:37.265Z,24.01
2023-03-17T13:35:37.253Z,23.92
2023-03-17T13:36:37.190Z,23.97
2023-03-17T13:37:37.181Z,23.95
2023-03-17T13:38:37.182Z,23.90
2023-03-17T13:39:37.123Z,23.93
2023-03-17T13:40:37.104Z,23.97
2023-03-17T13:41:37.092Z,23.91
2023-03-17T13:42:37.109Z,23.90
2023-03-17T13:43:37.066Z,23.84
2023-03-17T13:44:37.047Z,23.84
2023-03-17T13:45:37.013Z,23.87
2023-03-17T13:46:37.030Z,23.84
2023-03-17T13:47:36.966Z,23.84
2023-03-17T13:48:37.009Z,23.84
2023-03-17T13:49:37.006Z,23.76
2023-03-17T13:50:36.939Z,23.77
2023-03-17T13:51:37.675Z,23.79
2023-03-17T13:52:37.427Z,23.75
2023-03-17T13:53:36.882Z,23.76
2023-03-17T13:54:36.842Z,23.76
2023-03-17T13:55:36.911Z,23.70
2023-03-17T13:56:36.810Z,23.70
2023-03-17T13:57:36.790Z,23.73
2023-03-17T13:58:36.782Z,23.69
2023-03-17T13:59:36.761Z,23.66
2023-03-17T14:00:36.782Z,23.68
2023-03-17T14:01:36.721Z,23.63
2023-03-17T14:02:36.699Z,23.65
2023-03-17T14:03:36.786Z,23.63
2023-03-17T14:04:36.706Z,23.63
2023-03-17T14:05:36.658Z,23.63
2023-03-17T14:06:36.628Z,23.63
2023-03-17T14:07:36.640Z,23.61
2023-03-17T14:08:36.594Z,23.62
2023-03-17T14:09:36.638Z,23.63
2023-03-17T14:10:36.609Z,23.62
2023-03-17T14:11:36.582Z,23.63
2023-03-17T14:12:36.543Z,23.63
2023-03-17T14:13:36.568Z,23.62
2023-03-17T14:14:36.568Z,23.64
2023-03-17T14:15:36.984Z,23.57
2023-03-17T14:16:36.560Z,23.61
2023-03-17T14:17:36.515Z,23.63
2023-03-17T14:18:36.571Z,23.60
2023-03-17T14:19:36.510Z,23.58
2023-03-17T14:20:36.587Z,23.61
2023-03-17T14:21:36.525Z,23.53
2023-03-17T14:22:36.480Z,23.58
2023-03-17T14:23:36.527Z,23.58
2023-03-17T14:24:36.930Z,23.60
2023-03-17T14:25:36.437Z,23.57
2023-03-17T14:26:36.357Z,23.54
2023-03-17T14:27:36.346Z,23.57
2023-03-17T14:28:36.346Z,23.53
2023-03-17T14:29:36.255Z,23.54
2023-03-17T14:30:36.268Z,23.55
2023-03-17T14:31:36.281Z,23.55
2023-03-17T14:32:36.252Z,23.52
2023-03-17T14:33:36.201Z,23.51
2023-03-17T14:34:36.244Z,23.52
2023-03-17T14:35:36.387Z,23.52
2023-03-17T14:36:36.979Z,23.54
2023-03-17T14:37:36.921Z,23.54
2023-03-17T14:38:36.161Z,23.49
2023-03-17T14:39:36.918Z,23.48
2023-03-17T14:40:36.174Z,23.49
2023-03-17T14:41:36.192Z,23.54
2023-03-17T14:42:36.322Z,23.48
2023-03-17T14:43:36.216Z,23.52
2023-03-17T14:44:36.207Z,23.44
2023-03-17T14:45:36.262Z,23.48
2023-03-17T14:46:36.151Z,23.45
2023-03-17T14:47:36.189Z,23.47
2023-03-17T14:48:35.990Z,23.48
2023-03-17T14:49:35.984Z,23.45
2023-03-17T14:50:35.951Z,23.51
2023-03-17T14:51:36.010Z,23.45
2023-03-17T14:52:35.948Z,23.44
2023-03-17T14:53:35.950Z,23.49
2023-03-17T14:54:35.924Z,23.44
2023-03-17T14:55:35.911Z,23.45
2023-03-17T14:56:35.922Z,23.45
2023-03-17T14:57:35.889Z,23.46
2023-03-17T14:58:35.862Z,23.45
2023-03-17T14:59:35.880Z,23.46
2023-03-17T15:00:35.846Z,23.46
2023-03-17T15:01:35.883Z,23.45
2023-03-17T15:02:35.914Z,23.42
2023-03-17T15:03:35.796Z,23.45
2023-03-17T15:04:35.807Z,23.39
2023-03-17T15:05:35.778Z,23.46
2023-03-17T15:06:37.455Z,23.48
2023-03-17T15:07:35.763Z,23.45
2023-03-17T15:08:36.464Z,23.48
2023-03-17T15:09:35.720Z,23.50
2023-03-17T15:10:35.710Z,23.47
2023-03-17T15:11:35.703Z,23.43
2023-03-17T15:12:35.646Z,23.47
2023-03-17T15:13:35.649Z,23.43
2023-03-17T15:14:35.701Z,23.43
2023-03-17T15:15:35.621Z,23.44
2023-03-17T15:16:35.617Z,23.47
2023-03-17T15:17:35.585Z,23.50
2023-03-17T15:18:35.570Z,23.46
2023-03-17T15:19:35.591Z,23.43
2023-03-17T15:20:35.559Z,23.43
2023-03-17T15:21:35.537Z,23.44
2023-03-17T15:22:35.547Z,23.41
2023-03-17T15:23:35.507Z,23.47
2023-03-17T15:24:35.470Z,23.46
2023-03-17T15:25:35.506Z,23.48
2023-03-17T15:26:35.465Z,23.44
2023-03-17T15:27:35.437Z,23.41
2023-03-17T15:28:35.445Z,23.43
2023-03-17T15:29:35.411Z,23.43
2023-03-17T15:30:46.552Z,23.48
2023-03-17T15:31:36.610Z,23.46
2023-03-17T15:32:35.417Z,23.47
2023-03-17T15:33:35.380Z,23.46
2023-03-17T15:34:35.344Z,23.45
2023-03-17T15:35:35.391Z,23.46
2023-03-17T15:36:35.387Z,23.44
2023-03-17T15:37:35.302Z,23.43
2023-03-17T15:38:35.280Z,23.46
2023-03-17T15:39:35.278Z,23.43
2023-03-17T15:40:35.255Z,23.44
2023-03-17T15:41:35.284Z,23.44
2023-03-17T15:42:35.241Z,23.44
2023-03-17T15:43:35.272Z,23.46
2023-03-17T15:44:35.211Z,23.48
2023-03-17T15:45:35.191Z,23.46
2023-03-17T15:46:35.275Z,23.48
2023-03-17T15:47:35.241Z,23.44
2023-03-17T15:48:35.198Z,23.45
2023-03-17T15:49:35.134Z,23.49
2023-03-17T15:50:35.140Z,23.48
2023-03-17T15:51:35.154Z,23.48
2023-03-17T15:52:35.130Z,23.48
2023-03-17T15:53:35.064Z,23.48
2023-03-17T15:54:35.075Z,23.48
2023-03-17T15:55:35.084Z,23.46
2023-03-17T15:56:35.058Z,23.48
2023-03-17T15:57:35.023Z,23.51
2023-03-17T15:58:35.006Z,23.49
2023-03-17T15:59:34.995Z,23.48
2023-03-17T16:00:34.987Z,23.50
2023-03-17T16:01:35.012Z,23.53
2023-03-17T16:02:34.932Z,23.48
2023-03-17T16:03:34.927Z,23.49
2023-03-17T16:04:34.968Z,23.50
2023-03-17T16:05:34.901Z,23.50
2023-03-17T16:06:34.887Z,23.47
2023-03-17T16:07:34.868Z,23.50
2023-03-17T16:08:34.850Z,23.44
2023-03-17T16:09:34.868Z,23.50
2023-03-17T16:10:34.854Z,23.50
2023-03-17T16:11:34.905Z,23.48
2023-03-17T16:12:34.811Z,23.51
2023-03-17T16:13:34.874Z,23.50
2023-03-17T16:14:34.813Z,23.51
2023-03-17T16:15:34.850Z,23.53
2023-03-17T16:16:34.862Z,23.50
2023-03-17T16:17:34.813Z,23.51
2023-03-17T16:18:34.810Z,23.51
2023-03-17T16:19:34.816Z,23.50
2023-03-17T16:20:34.818Z,23.47
2023-03-17T16:21:34.829Z,23.55
2023-03-17T16:22:34.857Z,23.55
2023-03-17T16:23:36.962Z,23.51
2023-03-17T16:24:34.895Z,23.51
2023-03-17T16:25:34.895Z,23.53
2023-03-17T16:26:34.919Z,23.49
2023-03-17T16:27:34.986Z,23.52
2023-03-17T16:28:34.932Z,23.51
2023-03-17T16:29:34.942Z,23.51
2023-03-17T16:30:34.941Z,23.51
2023-03-17T16:31:35.033Z,23.55
2023-03-17T16:32:35.067Z,23.53
2023-03-17T16:33:35.121Z,23.57
2023-03-17T16:34:35.152Z,23.55
2023-03-17T16:35:35.254Z,23.52
2023-03-17T16:36:35.286Z,23.52
2023-03-17T16:37:35.364Z,23.55
2023-03-17T16:38:35.466Z,23.52
2023-03-17T16:39:35.462Z,23.52
2023-03-17T16:40:35.560Z,23.53
2023-03-17T16:41:35.641Z,23.49
2023-03-17T16:42:35.674Z,23.49
2023-03-17T16:43:35.683Z,23.52
2023-03-17T16:44:35.779Z,23.52
2023-03-17T16:45:35.678Z,23.56
2023-03-17T16:46:35.929Z,23.53
2023-03-17T16:47:35.713Z,23.53
2023-03-17T16:48:35.717Z,23.53
2023-03-17T16:49:35.715Z,23.54
2023-03-17T16:50:35.718Z,23.51
2023-03-17T16:51:35.719Z,23.56
2023-03-17T16:52:35.755Z,23.54
2023-03-17T16:53:35.758Z,23.51
2023-03-17T16:54:35.764Z,23.51
2023-03-17T16:55:35.764Z,23.53
2023-03-17T16:56:35.808Z,23.52
2023-03-17T16:57:35.793Z,23.51
2023-03-17T16:58:35.818Z,23.55
2023-03-17T16:59:35.801Z,23.48
2023-03-17T17:00:35.805Z,23.55
2023-03-17T17:01:35.839Z,23.52